sensor_id;sensor_type;location;lat;lon;timestamp;temperature;humidity
53876;DHT22;39789;53.216;5.624;2023-07-13T00:00:00;17.00;92.20
53876;DHT22;39789;53.216;5.624;2023-07-13T00:02:26;17.00;92.30
53876;DHT22;39789;53.216;5.624;2023-07-13T00:04:52;17.00;92.30
53876;DHT22;39789;53.216;5.624;2023-07-13T00:07:18;16.90;92.40
53876;DHT22;39789;53.216;5.624;2023-07-13T00:09:47;16.90;92.40
53876;DHT22;39789;53.216;5.624;2023-07-13T00:12:43;17.00;92.50
53876;DHT22;39789;53.216;5.624;2023-07-13T00:15:17;17.00;92.70
53876;DHT22;39789;53.216;5.624;2023-07-13T00:17:52;17.00;92.60
53876;DHT22;39789;53.216;5.624;2023-07-13T00:20:19;17.00;92.60
53876;DHT22;39789;53.216;5.624;2023-07-13T00:22:48;17.00;92.60
53876;DHT22;39789;53.216;5.624;2023-07-13T00:25:14;17.00;92.60
53876;DHT22;39789;53.216;5.624;2023-07-13T00:27:42;17.00;92.60
53876;DHT22;39789;53.216;5.624;2023-07-13T00:30:08;17.00;92.70
53876;DHT22;39789;53.216;5.624;2023-07-13T00:32:34;17.00;92.70
53876;DHT22;39789;53.216;5.624;2023-07-13T00:35:01;17.00;92.70
53876;DHT22;39789;53.216;5.624;2023-07-13T00:37:28;16.90;92.70
53876;DHT22;39789;53.216;5.624;2023-07-13T00:39:54;16.90;92.70
53876;DHT22;39789;53.216;5.624;2023-07-13T00:42:20;16.90;92.70
53876;DHT22;39789;53.216;5.624;2023-07-13T00:45:06;16.90;92.70
53876;DHT22;39789;53.216;5.624;2023-07-13T00:47:32;16.90;92.70
53876;DHT22;39789;53.216;5.624;2023-07-13T00:49:58;16.90;92.70
53876;DHT22;39789;53.216;5.624;2023-07-13T00:52:24;16.90;92.70
53876;DHT22;39789;53.216;5.624;2023-07-13T00:54:50;16.90;92.70
53876;DHT22;39789;53.216;5.624;2023-07-13T00:57:18;16.90;92.70
53876;DHT22;39789;53.216;5.624;2023-07-13T00:59:55;17.00;92.70
53876;DHT22;39789;53.216;5.624;2023-07-13T01:02:24;16.90;92.80
53876;DHT22;39789;53.216;5.624;2023-07-13T01:04:50;17.00;92.80
53876;DHT22;39789;53.216;5.624;2023-07-13T01:07:16;17.00;92.90
53876;DHT22;39789;53.216;5.624;2023-07-13T01:09:41;17.00;92.90
53876;DHT22;39789;53.216;5.624;2023-07-13T01:12:08;16.90;93.00
53876;DHT22;39789;53.216;5.624;2023-07-13T01:14:33;16.90;93.10
53876;DHT22;39789;53.216;5.624;2023-07-13T01:16:59;16.90;93.10
53876;DHT22;39789;53.216;5.624;2023-07-13T01:19:44;16.90;93.20
53876;DHT22;39789;53.216;5.624;2023-07-13T01:22:16;17.00;93.70
53876;DHT22;39789;53.216;5.624;2023-07-13T01:24:45;17.00;93.40
53876;DHT22;39789;53.216;5.624;2023-07-13T01:27:13;17.00;93.40
53876;DHT22;39789;53.216;5.624;2023-07-13T01:29:41;17.00;93.50
53876;DHT22;39789;53.216;5.624;2023-07-13T01:32:15;17.10;93.50
53876;DHT22;39789;53.216;5.624;2023-07-13T01:34:41;17.10;93.60
53876;DHT22;39789;53.216;5.624;2023-07-13T01:37:08;17.20;93.70
53876;DHT22;39789;53.216;5.624;2023-07-13T01:39:35;17.20;93.70
53876;DHT22;39789;53.216;5.624;2023-07-13T01:42:01;17.20;93.70
53876;DHT22;39789;53.216;5.624;2023-07-13T01:44:27;17.20;93.70
53876;DHT22;39789;53.216;5.624;2023-07-13T01:46:53;17.30;93.80
53876;DHT22;39789;53.216;5.624;2023-07-13T01:49:18;17.30;93.80
53876;DHT22;39789;53.216;5.624;2023-07-13T01:51:44;17.30;93.90
53876;DHT22;39789;53.216;5.624;2023-07-13T01:54:10;17.30;94.00
53876;DHT22;39789;53.216;5.624;2023-07-13T01:56:36;17.30;94.10
53876;DHT22;39789;53.216;5.624;2023-07-13T01:59:01;17.20;94.10
53876;DHT22;39789;53.216;5.624;2023-07-13T02:01:27;17.30;94.20
53876;DHT22;39789;53.216;5.624;2023-07-13T02:03:53;17.30;94.30
53876;DHT22;39789;53.216;5.624;2023-07-13T02:06:19;17.30;94.30
53876;DHT22;39789;53.216;5.624;2023-07-13T02:08:44;17.30;94.40
53876;DHT22;39789;53.216;5.624;2023-07-13T02:11:10;17.30;94.40
53876;DHT22;39789;53.216;5.624;2023-07-13T02:13:37;17.30;94.40
53876;DHT22;39789;53.216;5.624;2023-07-13T02:16:02;17.30;94.50
53876;DHT22;39789;53.216;5.624;2023-07-13T02:18:28;17.20;94.40
53876;DHT22;39789;53.216;5.624;2023-07-13T02:20:54;17.20;94.50
53876;DHT22;39789;53.216;5.624;2023-07-13T02:23:19;17.20;94.50
53876;DHT22;39789;53.216;5.624;2023-07-13T02:25:46;17.20;94.50
53876;DHT22;39789;53.216;5.624;2023-07-13T02:28:12;17.10;94.50
53876;DHT22;39789;53.216;5.624;2023-07-13T02:30:37;17.20;94.50
53876;DHT22;39789;53.216;5.624;2023-07-13T02:33:04;17.10;94.40
53876;DHT22;39789;53.216;5.624;2023-07-13T02:35:30;17.10;94.50
53876;DHT22;39789;53.216;5.624;2023-07-13T02:37:56;17.10;94.60
53876;DHT22;39789;53.216;5.624;2023-07-13T02:40:22;17.10;94.70
53876;DHT22;39789;53.216;5.624;2023-07-13T02:42:47;17.00;94.70
53876;DHT22;39789;53.216;5.624;2023-07-13T02:45:13;17.00;94.80
53876;DHT22;39789;53.216;5.624;2023-07-13T02:47:41;17.00;94.80
53876;DHT22;39789;53.216;5.624;2023-07-13T02:50:07;17.00;94.90
53876;DHT22;39789;53.216;5.624;2023-07-13T02:52:33;16.90;94.90
53876;DHT22;39789;53.216;5.624;2023-07-13T02:54:59;16.90;95.00
53876;DHT22;39789;53.216;5.624;2023-07-13T02:57:24;16.90;95.10
53876;DHT22;39789;53.216;5.624;2023-07-13T02:59:50;16.80;95.10
53876;DHT22;39789;53.216;5.624;2023-07-13T03:02:16;16.80;95.20
53876;DHT22;39789;53.216;5.624;2023-07-13T03:04:42;16.70;95.30
53876;DHT22;39789;53.216;5.624;2023-07-13T03:07:08;16.70;95.30
53876;DHT22;39789;53.216;5.624;2023-07-13T03:09:34;16.70;95.50
53876;DHT22;39789;53.216;5.624;2023-07-13T03:12:00;16.70;95.50
53876;DHT22;39789;53.216;5.624;2023-07-13T03:14:27;16.60;95.60
53876;DHT22;39789;53.216;5.624;2023-07-13T03:16:53;16.60;95.60
53876;DHT22;39789;53.216;5.624;2023-07-13T03:19:18;16.60;95.70
53876;DHT22;39789;53.216;5.624;2023-07-13T03:21:44;16.60;95.70
53876;DHT22;39789;53.216;5.624;2023-07-13T03:24:10;16.60;95.70
53876;DHT22;39789;53.216;5.624;2023-07-13T03:26:36;16.70;95.80
53876;DHT22;39789;53.216;5.624;2023-07-13T03:29:02;16.60;95.80
53876;DHT22;39789;53.216;5.624;2023-07-13T03:31:32;16.70;95.80
53876;DHT22;39789;53.216;5.624;2023-07-13T03:33:59;16.70;95.90
53876;DHT22;39789;53.216;5.624;2023-07-13T03:36:27;16.60;95.90
53876;DHT22;39789;53.216;5.624;2023-07-13T03:38:57;16.60;96.00
53876;DHT22;39789;53.216;5.624;2023-07-13T03:41:24;16.80;96.10
53876;DHT22;39789;53.216;5.624;2023-07-13T03:43:51;16.60;96.40
53876;DHT22;39789;53.216;5.624;2023-07-13T03:46:17;16.60;96.10
53876;DHT22;39789;53.216;5.624;2023-07-13T03:48:45;16.60;96.20
53876;DHT22;39789;53.216;5.624;2023-07-13T03:51:13;16.60;96.30
53876;DHT22;39789;53.216;5.624;2023-07-13T03:53:41;16.60;96.30
53876;DHT22;39789;53.216;5.624;2023-07-13T03:56:08;16.50;96.20
53876;DHT22;39789;53.216;5.624;2023-07-13T03:58:38;16.50;96.50
53876;DHT22;39789;53.216;5.624;2023-07-13T04:01:05;16.50;96.20
53876;DHT22;39789;53.216;5.624;2023-07-13T04:03:32;16.40;96.20
53876;DHT22;39789;53.216;5.624;2023-07-13T04:06:04;16.40;96.20
53876;DHT22;39789;53.216;5.624;2023-07-13T04:08:34;16.50;96.10
53876;DHT22;39789;53.216;5.624;2023-07-13T04:11:01;16.40;96.00
53876;DHT22;39789;53.216;5.624;2023-07-13T04:13:27;16.40;95.90
53876;DHT22;39789;53.216;5.624;2023-07-13T04:15:53;16.50;95.90
53876;DHT22;39789;53.216;5.624;2023-07-13T04:18:19;16.60;95.70
53876;DHT22;39789;53.216;5.624;2023-07-13T04:20:49;16.50;95.50
53876;DHT22;39789;53.216;5.624;2023-07-13T04:23:16;16.50;95.40
53876;DHT22;39789;53.216;5.624;2023-07-13T04:25:51;16.50;95.40
53876;DHT22;39789;53.216;5.624;2023-07-13T04:28:18;16.50;95.40
53876;DHT22;39789;53.216;5.624;2023-07-13T04:30:44;16.50;95.30
53876;DHT22;39789;53.216;5.624;2023-07-13T04:33:10;16.50;95.30
53876;DHT22;39789;53.216;5.624;2023-07-13T04:35:36;16.60;95.20
53876;DHT22;39789;53.216;5.624;2023-07-13T04:38:03;16.70;95.10
53876;DHT22;39789;53.216;5.624;2023-07-13T04:40:29;16.80;94.90
53876;DHT22;39789;53.216;5.624;2023-07-13T04:42:55;16.90;94.60
53876;DHT22;39789;53.216;5.624;2023-07-13T04:45:20;17.00;94.40
53876;DHT22;39789;53.216;5.624;2023-07-13T04:47:46;17.20;94.30
53876;DHT22;39789;53.216;5.624;2023-07-13T04:50:13;17.40;94.00
53876;DHT22;39789;53.216;5.624;2023-07-13T04:52:46;17.50;93.50
53876;DHT22;39789;53.216;5.624;2023-07-13T04:55:12;17.50;93.40
53876;DHT22;39789;53.216;5.624;2023-07-13T04:57:37;17.50;93.40
53876;DHT22;39789;53.216;5.624;2023-07-13T05:00:04;17.60;93.20
53876;DHT22;39789;53.216;5.624;2023-07-13T05:02:30;17.70;93.10
53876;DHT22;39789;53.216;5.624;2023-07-13T05:04:57;17.60;93.10
53876;DHT22;39789;53.216;5.624;2023-07-13T05:07:23;17.60;93.10
53876;DHT22;39789;53.216;5.624;2023-07-13T05:09:48;17.60;93.10
53876;DHT22;39789;53.216;5.624;2023-07-13T05:12:14;17.70;93.00
53876;DHT22;39789;53.216;5.624;2023-07-13T05:14:40;17.80;92.90
53876;DHT22;39789;53.216;5.624;2023-07-13T05:17:05;17.80;92.60
53876;DHT22;39789;53.216;5.624;2023-07-13T05:19:31;17.90;92.40
53876;DHT22;39789;53.216;5.624;2023-07-13T05:21:57;17.90;92.20
53876;DHT22;39789;53.216;5.624;2023-07-13T05:24:23;17.90;92.10
53876;DHT22;39789;53.216;5.624;2023-07-13T05:26:49;18.00;92.00
53876;DHT22;39789;53.216;5.624;2023-07-13T05:29:15;18.00;91.90
53876;DHT22;39789;53.216;5.624;2023-07-13T05:31:41;18.10;91.90
53876;DHT22;39789;53.216;5.624;2023-07-13T05:34:07;18.00;91.90
53876;DHT22;39789;53.216;5.624;2023-07-13T05:36:33;18.10;92.00
53876;DHT22;39789;53.216;5.624;2023-07-13T05:38:59;18.10;91.90
53876;DHT22;39789;53.216;5.624;2023-07-13T05:41:25;18.10;91.80
53876;DHT22;39789;53.216;5.624;2023-07-13T05:43:51;18.20;91.60
53876;DHT22;39789;53.216;5.624;2023-07-13T05:46:16;18.30;91.30
53876;DHT22;39789;53.216;5.624;2023-07-13T05:48:42;18.30;91.00
53876;DHT22;39789;53.216;5.624;2023-07-13T05:51:08;18.30;90.90
53876;DHT22;39789;53.216;5.624;2023-07-13T05:53:34;18.30;90.90
53876;DHT22;39789;53.216;5.624;2023-07-13T05:56:00;18.40;91.00
53876;DHT22;39789;53.216;5.624;2023-07-13T05:58:26;18.40;90.90
53876;DHT22;39789;53.216;5.624;2023-07-13T06:01:04;18.40;90.70
53876;DHT22;39789;53.216;5.624;2023-07-13T06:03:30;18.50;90.20
53876;DHT22;39789;53.216;5.624;2023-07-13T06:05:56;18.50;90.80
53876;DHT22;39789;53.216;5.624;2023-07-13T06:08:22;18.50;90.40
53876;DHT22;39789;53.216;5.624;2023-07-13T06:10:48;18.60;90.30
53876;DHT22;39789;53.216;5.624;2023-07-13T06:13:13;18.60;90.10
53876;DHT22;39789;53.216;5.624;2023-07-13T06:15:39;18.60;89.90
53876;DHT22;39789;53.216;5.624;2023-07-13T06:18:05;18.60;89.60
53876;DHT22;39789;53.216;5.624;2023-07-13T06:20:33;18.70;89.60
53876;DHT22;39789;53.216;5.624;2023-07-13T06:22:58;18.70;89.20
53876;DHT22;39789;53.216;5.624;2023-07-13T06:25:24;18.80;88.80
53876;DHT22;39789;53.216;5.624;2023-07-13T06:27:51;18.80;88.40
53876;DHT22;39789;53.216;5.624;2023-07-13T06:30:17;18.90;87.90
53876;DHT22;39789;53.216;5.624;2023-07-13T06:32:42;18.90;87.50
53876;DHT22;39789;53.216;5.624;2023-07-13T06:35:08;19.00;86.80
53876;DHT22;39789;53.216;5.624;2023-07-13T06:37:38;19.10;87.30
53876;DHT22;39789;53.216;5.624;2023-07-13T06:40:04;19.10;86.00
53876;DHT22;39789;53.216;5.624;2023-07-13T06:42:30;19.10;85.90
53876;DHT22;39789;53.216;5.624;2023-07-13T06:44:56;19.10;86.30
53876;DHT22;39789;53.216;5.624;2023-07-13T06:47:21;19.10;86.80
53876;DHT22;39789;53.216;5.624;2023-07-13T06:49:47;19.10;86.80
53876;DHT22;39789;53.216;5.624;2023-07-13T06:52:13;19.20;86.80
53876;DHT22;39789;53.216;5.624;2023-07-13T06:54:38;19.20;86.50
53876;DHT22;39789;53.216;5.624;2023-07-13T06:57:04;19.20;86.10
53876;DHT22;39789;53.216;5.624;2023-07-13T06:59:30;19.30;85.90
53876;DHT22;39789;53.216;5.624;2023-07-13T07:01:56;19.30;85.60
53876;DHT22;39789;53.216;5.624;2023-07-13T07:04:21;19.30;84.90
53876;DHT22;39789;53.216;5.624;2023-07-13T07:06:47;19.30;84.90
53876;DHT22;39789;53.216;5.624;2023-07-13T07:09:13;19.40;84.90
53876;DHT22;39789;53.216;5.624;2023-07-13T07:11:39;19.40;84.70
53876;DHT22;39789;53.216;5.624;2023-07-13T07:14:05;19.50;84.70
53876;DHT22;39789;53.216;5.624;2023-07-13T07:16:30;19.60;84.60
53876;DHT22;39789;53.216;5.624;2023-07-13T07:18:57;19.60;84.90
53876;DHT22;39789;53.216;5.624;2023-07-13T07:21:22;19.60;84.20
53876;DHT22;39789;53.216;5.624;2023-07-13T07:23:49;19.50;84.30
53876;DHT22;39789;53.216;5.624;2023-07-13T07:26:15;19.60;84.40
53876;DHT22;39789;53.216;5.624;2023-07-13T07:28:40;19.70;85.00
53876;DHT22;39789;53.216;5.624;2023-07-13T07:31:06;19.80;84.20
53876;DHT22;39789;53.216;5.624;2023-07-13T07:33:33;19.90;83.80
53876;DHT22;39789;53.216;5.624;2023-07-13T07:36:00;19.90;83.50
53876;DHT22;39789;53.216;5.624;2023-07-13T07:38:26;19.90;83.20
53876;DHT22;39789;53.216;5.624;2023-07-13T07:40:52;20.20;83.30
53876;DHT22;39789;53.216;5.624;2023-07-13T07:43:18;20.50;82.70
53876;DHT22;39789;53.216;5.624;2023-07-13T07:45:44;21.20;82.50
53876;DHT22;39789;53.216;5.624;2023-07-13T07:48:10;21.90;80.90
53876;DHT22;39789;53.216;5.624;2023-07-13T07:50:36;21.80;79.50
53876;DHT22;39789;53.216;5.624;2023-07-13T07:53:03;21.50;79.70
53876;DHT22;39789;53.216;5.624;2023-07-13T07:55:29;21.10;80.40
53876;DHT22;39789;53.216;5.624;2023-07-13T07:57:56;21.30;81.10
53876;DHT22;39789;53.216;5.624;2023-07-13T08:00:22;21.70;80.30
53876;DHT22;39789;53.216;5.624;2023-07-13T08:02:48;22.30;79.80
53876;DHT22;39789;53.216;5.624;2023-07-13T08:05:14;23.00;78.30
53876;DHT22;39789;53.216;5.624;2023-07-13T08:07:40;23.60;76.60
53876;DHT22;39789;53.216;5.624;2023-07-13T08:10:07;24.30;75.30
53876;DHT22;39789;53.216;5.624;2023-07-13T08:12:37;24.70;73.00
53876;DHT22;39789;53.216;5.624;2023-07-13T08:15:04;24.50;70.50
53876;DHT22;39789;53.216;5.624;2023-07-13T08:17:30;24.30;71.10
53876;DHT22;39789;53.216;5.624;2023-07-13T08:19:56;23.90;71.20
53876;DHT22;39789;53.216;5.624;2023-07-13T08:22:22;23.20;72.50
53876;DHT22;39789;53.216;5.624;2023-07-13T08:24:48;23.00;72.70
53876;DHT22;39789;53.216;5.624;2023-07-13T08:27:21;23.60;71.80
53876;DHT22;39789;53.216;5.624;2023-07-13T08:29:48;23.20;71.40
53876;DHT22;39789;53.216;5.624;2023-07-13T08:32:13;22.70;71.00
53876;DHT22;39789;53.216;5.624;2023-07-13T08:34:39;22.20;71.10
53876;DHT22;39789;53.216;5.624;2023-07-13T08:37:06;22.60;71.60
53876;DHT22;39789;53.216;5.624;2023-07-13T08:39:32;23.50;71.00
53876;DHT22;39789;53.216;5.624;2023-07-13T08:42:05;23.80;70.20
53876;DHT22;39789;53.216;5.624;2023-07-13T08:47:22;23.30;69.50
53876;DHT22;39789;53.216;5.624;2023-07-13T08:49:49;22.90;70.80
53876;DHT22;39789;53.216;5.624;2023-07-13T08:54:47;21.90;70.80
53876;DHT22;39789;53.216;5.624;2023-07-13T08:57:17;21.80;71.40
53876;DHT22;39789;53.216;5.624;2023-07-13T08:59:45;21.80;70.30
53876;DHT22;39789;53.216;5.624;2023-07-13T09:05:33;21.80;69.80
53876;DHT22;39789;53.216;5.624;2023-07-13T09:10:32;21.90;70.30
53876;DHT22;39789;53.216;5.624;2023-07-13T09:13:28;21.90;70.80
53876;DHT22;39789;53.216;5.624;2023-07-13T09:15:55;21.80;67.80
53876;DHT22;39789;53.216;5.624;2023-07-13T09:18:32;21.70;69.00
53876;DHT22;39789;53.216;5.624;2023-07-13T09:21:13;21.60;69.50
53876;DHT22;39789;53.216;5.624;2023-07-13T09:23:40;21.70;69.80
53876;DHT22;39789;53.216;5.624;2023-07-13T09:26:22;21.80;70.00
53876;DHT22;39789;53.216;5.624;2023-07-13T09:28:55;21.80;69.30
53876;DHT22;39789;53.216;5.624;2023-07-13T09:31:36;21.90;70.10
53876;DHT22;39789;53.216;5.624;2023-07-13T09:34:04;22.00;70.10
53876;DHT22;39789;53.216;5.624;2023-07-13T09:36:32;22.00;69.80
53876;DHT22;39789;53.216;5.624;2023-07-13T09:39:10;21.90;69.50
53876;DHT22;39789;53.216;5.624;2023-07-13T09:44:54;22.20;70.70
53876;DHT22;39789;53.216;5.624;2023-07-13T09:47:29;22.40;70.20
53876;DHT22;39789;53.216;5.624;2023-07-13T09:50:02;22.60;70.20
53876;DHT22;39789;53.216;5.624;2023-07-13T09:52:48;22.60;69.40
53876;DHT22;39789;53.216;5.624;2023-07-13T09:55:38;22.20;69.70
53876;DHT22;39789;53.216;5.624;2023-07-13T09:58:12;21.70;70.60
53876;DHT22;39789;53.216;5.624;2023-07-13T10:00:40;21.30;72.20
53876;DHT22;39789;53.216;5.624;2023-07-13T10:03:27;21.10;72.90
53876;DHT22;39789;53.216;5.624;2023-07-13T10:05:52;21.00;73.20
53876;DHT22;39789;53.216;5.624;2023-07-13T10:08:29;20.80;73.70
53876;DHT22;39789;53.216;5.624;2023-07-13T10:11:08;20.80;74.80
53876;DHT22;39789;53.216;5.624;2023-07-13T10:13:47;20.80;75.90
53876;DHT22;39789;53.216;5.624;2023-07-13T10:16:16;20.90;75.90
53876;DHT22;39789;53.216;5.624;2023-07-13T10:19:18;20.80;75.40
53876;DHT22;39789;53.216;5.624;2023-07-13T10:21:58;20.80;74.00
53876;DHT22;39789;53.216;5.624;2023-07-13T10:24:32;20.90;75.90
53876;DHT22;39789;53.216;5.624;2023-07-13T10:27:03;21.10;75.50
53876;DHT22;39789;53.216;5.624;2023-07-13T10:29:35;21.40;76.00
53876;DHT22;39789;53.216;5.624;2023-07-13T10:32:03;21.80;75.00
53876;DHT22;39789;53.216;5.624;2023-07-13T10:34:34;22.00;73.80
53876;DHT22;39789;53.216;5.624;2023-07-13T10:37:00;22.10;73.80
53876;DHT22;39789;53.216;5.624;2023-07-13T10:39:28;22.20;73.10
53876;DHT22;39789;53.216;5.624;2023-07-13T10:41:55;22.30;72.60
53876;DHT22;39789;53.216;5.624;2023-07-13T10:44:27;22.30;71.50
53876;DHT22;39789;53.216;5.624;2023-07-13T10:47:03;22.10;71.50
53876;DHT22;39789;53.216;5.624;2023-07-13T10:49:32;21.90;72.80
53876;DHT22;39789;53.216;5.624;2023-07-13T10:52:00;21.80;72.50
53876;DHT22;39789;53.216;5.624;2023-07-13T10:57:15;21.90;72.40
53876;DHT22;39789;53.216;5.624;2023-07-13T10:59:43;21.90;72.00
53876;DHT22;39789;53.216;5.624;2023-07-13T11:02:25;22.00;72.30
53876;DHT22;39789;53.216;5.624;2023-07-13T11:04:54;22.10;70.30
53876;DHT22;39789;53.216;5.624;2023-07-13T11:07:29;22.30;69.90
53876;DHT22;39789;53.216;5.624;2023-07-13T11:09:57;22.30;69.10
53876;DHT22;39789;53.216;5.624;2023-07-13T11:19:54;22.40;70.50
53876;DHT22;39789;53.216;5.624;2023-07-13T11:25:32;22.50;70.40
53876;DHT22;39789;53.216;5.624;2023-07-13T11:33:22;22.00;70.90
53876;DHT22;39789;53.216;5.624;2023-07-13T11:38:35;21.60;71.40
53876;DHT22;39789;53.216;5.624;2023-07-13T11:41:21;21.60;72.80
53876;DHT22;39789;53.216;5.624;2023-07-13T11:43:54;21.60;72.80
53876;DHT22;39789;53.216;5.624;2023-07-13T11:46:23;21.40;72.70
53876;DHT22;39789;53.216;5.624;2023-07-13T11:48:50;21.30;73.70
53876;DHT22;39789;53.216;5.624;2023-07-13T11:51:30;21.10;74.40
53876;DHT22;39789;53.216;5.624;2023-07-13T11:54:00;21.00;76.20
53876;DHT22;39789;53.216;5.624;2023-07-13T11:56:27;21.20;75.50
53876;DHT22;39789;53.216;5.624;2023-07-13T11:58:56;21.20;75.10
53876;DHT22;39789;53.216;5.624;2023-07-13T12:01:27;21.10;74.30
53876;DHT22;39789;53.216;5.624;2023-07-13T12:04:02;21.00;74.50
53876;DHT22;39789;53.216;5.624;2023-07-13T12:06:33;20.80;74.80
53876;DHT22;39789;53.216;5.624;2023-07-13T12:09:13;20.90;76.20
53876;DHT22;39789;53.216;5.624;2023-07-13T12:11:41;21.00;75.80
53876;DHT22;39789;53.216;5.624;2023-07-13T12:14:15;21.10;76.00
53876;DHT22;39789;53.216;5.624;2023-07-13T12:16:42;21.10;76.40
53876;DHT22;39789;53.216;5.624;2023-07-13T12:19:18;20.80;76.50
53876;DHT22;39789;53.216;5.624;2023-07-13T12:21:46;20.60;78.10
53876;DHT22;39789;53.216;5.624;2023-07-13T12:24:17;20.40;78.20
53876;DHT22;39789;53.216;5.624;2023-07-13T12:26:44;20.70;78.70
53876;DHT22;39789;53.216;5.624;2023-07-13T12:29:17;20.90;77.80
53876;DHT22;39789;53.216;5.624;2023-07-13T12:31:48;21.10;77.60
53876;DHT22;39789;53.216;5.624;2023-07-13T12:34:16;21.30;77.30
53876;DHT22;39789;53.216;5.624;2023-07-13T12:36:48;21.30;76.50
53876;DHT22;39789;53.216;5.624;2023-07-13T12:39:49;21.10;76.40
53876;DHT22;39789;53.216;5.624;2023-07-13T12:44:43;21.10;77.20
53876;DHT22;39789;53.216;5.624;2023-07-13T12:47:13;21.30;77.00
53876;DHT22;39789;53.216;5.624;2023-07-13T12:49:47;21.10;76.70
53876;DHT22;39789;53.216;5.624;2023-07-13T12:52:17;21.00;75.50
53876;DHT22;39789;53.216;5.624;2023-07-13T12:54:57;21.00;75.90
53876;DHT22;39789;53.216;5.624;2023-07-13T12:57:23;21.10;75.90
53876;DHT22;39789;53.216;5.624;2023-07-13T12:59:52;21.10;76.00
53876;DHT22;39789;53.216;5.624;2023-07-13T13:02:28;21.20;76.00
53876;DHT22;39789;53.216;5.624;2023-07-13T13:04:56;21.40;75.20
53876;DHT22;39789;53.216;5.624;2023-07-13T13:07:24;21.40;75.00
53876;DHT22;39789;53.216;5.624;2023-07-13T13:09:50;21.50;74.80
53876;DHT22;39789;53.216;5.624;2023-07-13T13:12:15;21.50;74.90
53876;DHT22;39789;53.216;5.624;2023-07-13T13:14:42;21.50;74.30
53876;DHT22;39789;53.216;5.624;2023-07-13T13:17:26;21.60;74.40
53876;DHT22;39789;53.216;5.624;2023-07-13T13:19:53;21.60;73.90
53876;DHT22;39789;53.216;5.624;2023-07-13T13:22:20;21.50;74.20
53876;DHT22;39789;53.216;5.624;2023-07-13T13:24:46;21.60;73.90
53876;DHT22;39789;53.216;5.624;2023-07-13T13:27:21;21.80;73.90
53876;DHT22;39789;53.216;5.624;2023-07-13T13:29:50;21.80;73.30
53876;DHT22;39789;53.216;5.624;2023-07-13T13:32:17;21.90;74.00
53876;DHT22;39789;53.216;5.624;2023-07-13T13:34:44;21.90;74.70
53876;DHT22;39789;53.216;5.624;2023-07-13T13:37:28;22.00;75.60
53876;DHT22;39789;53.216;5.624;2023-07-13T13:39:54;21.60;76.80
53876;DHT22;39789;53.216;5.624;2023-07-13T13:42:20;21.40;76.80
53876;DHT22;39789;53.216;5.624;2023-07-13T13:44:50;21.10;77.00
53876;DHT22;39789;53.216;5.624;2023-07-13T13:49:48;21.20;77.40
53876;DHT22;39789;53.216;5.624;2023-07-13T13:52:14;21.30;76.70
53876;DHT22;39789;53.216;5.624;2023-07-13T13:54:41;21.50;76.60
53876;DHT22;39789;53.216;5.624;2023-07-13T13:57:08;21.60;76.70
53876;DHT22;39789;53.216;5.624;2023-07-13T13:59:34;21.60;76.40
53876;DHT22;39789;53.216;5.624;2023-07-13T14:02:23;21.60;76.00
53876;DHT22;39789;53.216;5.624;2023-07-13T14:04:58;21.60;76.10
53876;DHT22;39789;53.216;5.624;2023-07-13T14:07:25;21.50;76.20
53876;DHT22;39789;53.216;5.624;2023-07-13T14:09:58;21.40;76.50
53876;DHT22;39789;53.216;5.624;2023-07-13T14:12:25;21.30;76.90
53876;DHT22;39789;53.216;5.624;2023-07-13T14:14:54;21.20;78.00
53876;DHT22;39789;53.216;5.624;2023-07-13T14:17:23;21.30;77.60
53876;DHT22;39789;53.216;5.624;2023-07-13T14:19:50;21.20;77.40
53876;DHT22;39789;53.216;5.624;2023-07-13T14:22:20;21.20;77.10
53876;DHT22;39789;53.216;5.624;2023-07-13T14:24:46;21.10;77.00
53876;DHT22;39789;53.216;5.624;2023-07-13T14:27:12;21.00;77.90
53876;DHT22;39789;53.216;5.624;2023-07-13T14:29:38;21.10;78.30
53876;DHT22;39789;53.216;5.624;2023-07-13T14:32:04;21.20;78.60
53876;DHT22;39789;53.216;5.624;2023-07-13T14:34:31;21.30;78.70
53876;DHT22;39789;53.216;5.624;2023-07-13T14:36:57;21.30;78.30
53876;DHT22;39789;53.216;5.624;2023-07-13T14:39:24;21.20;77.80
53876;DHT22;39789;53.216;5.624;2023-07-13T14:41:52;21.40;77.90
53876;DHT22;39789;53.216;5.624;2023-07-13T14:44:23;21.40;78.00
53876;DHT22;39789;53.216;5.624;2023-07-13T14:46:50;21.40;77.80
53876;DHT22;39789;53.216;5.624;2023-07-13T14:49:38;21.40;77.70
53876;DHT22;39789;53.216;5.624;2023-07-13T14:52:12;21.20;78.00
53876;DHT22;39789;53.216;5.624;2023-07-13T14:54:39;21.20;78.60
53876;DHT22;39789;53.216;5.624;2023-07-13T14:57:14;21.20;78.50
53876;DHT22;39789;53.216;5.624;2023-07-13T14:59:40;21.00;78.90
53876;DHT22;39789;53.216;5.624;2023-07-13T15:02:33;20.90;79.70
53876;DHT22;39789;53.216;5.624;2023-07-13T15:04:59;21.00;79.50
53876;DHT22;39789;53.216;5.624;2023-07-13T15:07:26;21.20;79.40
53876;DHT22;39789;53.216;5.624;2023-07-13T15:09:52;21.10;79.20
53876;DHT22;39789;53.216;5.624;2023-07-13T15:12:18;21.10;79.30
53876;DHT22;39789;53.216;5.624;2023-07-13T15:14:44;21.10;79.30
53876;DHT22;39789;53.216;5.624;2023-07-13T15:17:45;21.10;79.10
53876;DHT22;39789;53.216;5.624;2023-07-13T15:20:17;21.20;79.50
53876;DHT22;39789;53.216;5.624;2023-07-13T15:22:43;21.30;78.60
53876;DHT22;39789;53.216;5.624;2023-07-13T15:25:18;21.30;78.90
53876;DHT22;39789;53.216;5.624;2023-07-13T15:27:44;21.10;77.90
53876;DHT22;39789;53.216;5.624;2023-07-13T15:30:10;21.00;78.90
53876;DHT22;39789;53.216;5.624;2023-07-13T15:32:36;20.80;79.30
53876;DHT22;39789;53.216;5.624;2023-07-13T15:35:02;20.70;79.50
53876;DHT22;39789;53.216;5.624;2023-07-13T15:37:28;20.70;79.90
53876;DHT22;39789;53.216;5.624;2023-07-13T15:39:54;20.70;80.60
53876;DHT22;39789;53.216;5.624;2023-07-13T15:42:21;20.80;80.80
53876;DHT22;39789;53.216;5.624;2023-07-13T15:44:47;20.70;80.20
53876;DHT22;39789;53.216;5.624;2023-07-13T15:47:14;20.70;80.50
53876;DHT22;39789;53.216;5.624;2023-07-13T15:49:41;20.90;81.30
53876;DHT22;39789;53.216;5.624;2023-07-13T15:52:22;21.00;80.50
53876;DHT22;39789;53.216;5.624;2023-07-13T15:54:49;20.90;80.00
53876;DHT22;39789;53.216;5.624;2023-07-13T15:57:16;20.90;81.70
53876;DHT22;39789;53.216;5.624;2023-07-13T15:59:42;20.80;81.20
53876;DHT22;39789;53.216;5.624;2023-07-13T16:02:13;21.00;81.10
53876;DHT22;39789;53.216;5.624;2023-07-13T16:04:39;20.90;80.30
53876;DHT22;39789;53.216;5.624;2023-07-13T16:07:05;20.80;79.80
53876;DHT22;39789;53.216;5.624;2023-07-13T16:09:32;20.70;80.00
53876;DHT22;39789;53.216;5.624;2023-07-13T16:11:58;20.70;80.30
53876;DHT22;39789;53.216;5.624;2023-07-13T16:14:23;20.50;80.20
53876;DHT22;39789;53.216;5.624;2023-07-13T16:16:51;20.40;80.50
53876;DHT22;39789;53.216;5.624;2023-07-13T16:19:20;20.40;81.00